• Join FlightAware (Why Join?)
  • Login
  • US Flag 
12:57PM EDT


 

Airport Tracker/Info


-or-


 

Live Flight TrackerFlight Track Log ✈ N925AE ✈ 05-May-2013 ✈ KGRR - KDFW

Flight Track Log - Related Links

Times and Time Zones

All times are in EDT time to prevent confusion due to time zone crossing. See the N925AE flight status page for this flight to view local times or setup timezone preferences in your user account.

Time Position Orientation Groundspeed Altitude Reporting Facility
EDT Latitude Longitude Course Direction KTS MPH feet Rate Location/Type
01:01PM 42.8206 -85.5233 216° Southwest 264 304 2,900  Level Chicago Center
01:02PM 42.6493 -85.8311 226° Southwest  Level FlightAware Approximate
01:02PM 42.7808 -85.5956 233° Southwest 240 276 4,500  Level Chicago Center
01:03PM 42.5757 -85.9347 227° Southwest  Level FlightAware Approximate
01:03PM 42.7342 -85.6736 231° Southwest 260 299 6,700  Level Chicago Center
01:04PM 42.5028 -86.0389 227° Southwest  Level FlightAware Approximate
01:04PM 42.6842 -85.7553 230° Southwest 273 314 9,100  Level Chicago Center
01:05PM 42.4257 -86.1365 228° Southwest  Level FlightAware Approximate
01:05PM 42.6275 -85.8344 226° Southwest 290 334 10,500  Level Chicago Center
01:06PM 42.3464 -86.2370 216° Southwest  Level FlightAware Approximate
01:06PM 42.5597 -85.9139 221° Southwest 315 362 11,700  Level Chicago Center
01:07PM 42.4792 -86.0250 226° Southwest 338 389 13,500 1,500 Climbing Chicago Center
01:08PM 42.4078 -86.1183 224° Southwest 352 405 14,900 1,380 Climbing Chicago Center
01:09PM 42.3364 -86.2147 225° Southwest 360 414 16,400 1,380 Climbing Chicago Center
01:10PM 42.2611 -86.3156 225° Southwest 360 414 17,800 1,260 Climbing Chicago Center
01:11PM 42.1889 -86.4106 224° Southwest 363 418 19,100 1,260 Climbing Chicago Center
01:12PM 42.1242 -86.5214 232° Southwest 380 437 20,500 1,260 Climbing Chicago Center
01:13PM 42.0606 -86.6347 233° Southwest 382 440 21,800 1,200 Climbing Chicago Center
01:14PM 41.9942 -86.7519 233° Southwest 384 442 23,100 1,380 Climbing Chicago Center
01:15PM 41.9106 -86.8814 229° Southwest 384 442 24,700 1,380 Climbing Chicago Center
01:16PM 41.8331 -86.9753 222° Southwest 380 437 26,000 1,200 Climbing Chicago Center
01:17PM 41.7572 -87.0700 223° Southwest 375 432 27,300 1,200 Climbing Chicago Center
01:18PM 41.6817 -87.1647 223° Southwest 373 429 28,600 1,200 Climbing Chicago Center
01:19PM 41.6075 -87.2572 223° Southwest 368 423 29,900 1,380 Climbing Chicago Center
01:20PM 41.5189 -87.3667 223° Southwest 364 419 31,500 1,380 Climbing Chicago Center
01:21PM 41.4467 -87.4569 223° Southwest 358 412 32,800 1,200 Climbing Chicago Center
01:22PM 41.3750 -87.5467 223° Southwest 354 407 34,100 1,080 Climbing Chicago Center
01:23PM 41.3042 -87.6325 222° Southwest 348 400 35,100 900 Climbing Chicago Center
01:24PM 41.2342 -87.7186 223° Southwest 344 396 36,000 420 Climbing Chicago Center
01:25PM 41.1628 -87.8061 223° Southwest 347 399 36,000  Level Chicago Center
01:26PM 41.0856 -87.8992 222° Southwest 367 422 36,000  Level Chicago Center
01:27PM 40.9883 -88.0186 223° Southwest 395 455 36,000  Level Chicago Center
01:28PM 40.9028 -88.1206 222° Southwest 406 467 36,000  Level Chicago Center
01:30PM 40.8164 -88.2253 223° Southwest 417 480 36,000  Level Chicago Center
01:31PM 40.7300 -88.3289 222° Southwest 420 483 36,000  Level Chicago Center
01:32PM 40.6444 -88.4319 222° Southwest 419 482 36,000  Level Chicago Center
01:33PM 40.5594 -88.5325 222° Southwest 415 478 36,000  Level Chicago Center
01:34PM 40.4572 -88.6544 222° Southwest 415 478 36,000  Level Chicago Center
01:35PM 40.3700 -88.7561 222° Southwest 412 474 36,000  Level Chicago Center
01:36PM 40.2847 -88.8569 222° Southwest 410 472 36,000  Level Chicago Center
01:37PM 40.1986 -88.9564 221° Southwest 410 472 36,000  Level Chicago Center
01:38PM 40.1131 -89.0572 222° Southwest 412 474 36,000  Level Chicago Center
01:39PM 40.0269 -89.1592 222° Southwest 414 476 36,000  Level Chicago Center
01:39PM 40.0081 -89.1786 218° Southwest 410 472 36,000  Level Kansas City Center
01:40PM 39.9042 -89.2997 222° Southwest 415 478 36,000  Level Kansas City Center
01:41PM 39.8175 -89.3986 221° Southwest 414 476 36,000  Level Kansas City Center
01:42PM 39.7311 -89.4975 221° Southwest 412 474 36,000  Level Kansas City Center
01:43PM 39.6486 -89.5928 222° Southwest 416 479 36,000  Level Kansas City Center
01:44PM 39.5608 -89.6953 222° Southwest 423 487 36,000  Level Kansas City Center
01:45PM 39.4561 -89.8161 222° Southwest 422 486 36,000  Level Kansas City Center
01:46PM 39.3667 -89.9142 220° Southwest 422 486 36,000  Level Kansas City Center
01:47PM 39.2761 -90.0169 221° Southwest 430 495 36,000  Level Kansas City Center
01:48PM 39.1856 -90.1203 222° Southwest 435 501 36,000  Level Kansas City Center
01:49PM 39.0933 -90.2236 221° Southwest 439 505 36,000  Level Kansas City Center
01:50PM 38.9833 -90.3475 221° Southwest 441 507 36,000  Level Kansas City Center
01:51PM 38.8997 -90.4419 221° Southwest 434 499 36,000  Level Kansas City Center
01:53PM 38.8086 -90.5528 223° Southwest 443 510 36,000  Level Kansas City Center
01:54PM 38.7278 -90.6764 230° Southwest 446 513 36,000  Level Kansas City Center
01:55PM 38.6461 -90.7975 229° Southwest 447 514 36,000  Level Kansas City Center
01:56PM 38.5486 -90.9394 229° Southwest 447 514 36,000  Level Kansas City Center
01:57PM 38.4675 -91.0578 229° Southwest 446 513 36,000  Level Kansas City Center
01:58PM 38.3850 -91.1758 228° Southwest 446 513 36,000  Level Kansas City Center
01:59PM 38.3022 -91.2936 228° Southwest 447 514 36,000  Level Kansas City Center
02:00PM 38.2164 -91.4175 229° Southwest 449 517 36,000  Level Kansas City Center
02:01PM 38.1333 -91.5364 228° Southwest 449 517 36,000  Level Kansas City Center
02:02PM 38.0325 -91.6797 228° Southwest 450 518 36,000  Level Kansas City Center
02:03PM 37.9481 -91.7992 228° Southwest 451 519 36,000  Level Kansas City Center
02:04PM 37.8644 -91.9181 228° Southwest 448 516 36,000  Level Kansas City Center
02:05PM 37.7794 -92.0372 228° Southwest 449 517 36,000  Level Kansas City Center
02:06PM 37.7053 -92.1417 228° Southwest 448 516 36,000  Level Kansas City Center
02:07PM 37.6094 -92.2761 228° Southwest 451 519 36,000  Level Kansas City Center
02:08PM 37.5250 -92.3956 228° Southwest 451 519 36,000  Level Kansas City Center
02:09PM 37.4400 -92.5150 228° Southwest 452 520 36,000  Level Kansas City Center
02:10PM 37.3550 -92.6303 227° Southwest 448 516 36,000  Level Kansas City Center
02:11PM 37.2525 -92.7689 227° Southwest 448 516 36,000  Level Kansas City Center
02:12PM 37.1669 -92.8850 227° Southwest 450 518 36,000  Level Kansas City Center
02:13PM 37.0817 -93.0014 227° Southwest 451 519 36,000  Level Kansas City Center
02:14PM 36.9967 -93.1172 227° Southwest 450 518 36,000  Level Kansas City Center
02:15PM 36.9111 -93.2314 227° Southwest 448 516 36,000  Level Kansas City Center
02:16PM 36.8467 -93.3228 229° Southwest 457 526 36,000  Level Memphis Center
02:17PM 36.7561 -93.4464 228° Southwest 451 519 36,000  Level Memphis Center
02:17PM 36.7392 -93.4661 223° Southwest 446 513 36,000  Level Kansas City Center
02:18PM 36.6558 -93.5778 227° Southwest 443 510 36,000  Level Kansas City Center
02:19PM 36.5922 -93.6675 229° Southwest 445 512 36,000  Level Memphis Center
02:20PM 36.5100 -93.7778 227° Southwest 445 512 36,000  Level Memphis Center
02:21PM 36.4256 -93.8853 226° Southwest 439 505 36,000  Level Memphis Center
02:21PM 36.3961 -93.9250 227° Southwest 429 494 36,000  Level Kansas City Center
02:22PM 36.3497 -93.9928 230° Southwest 434 499 36,000  Level Memphis Center
02:23PM 36.2633 -94.0917 223° Southwest 434 499 36,000  Level Memphis Center
02:24PM 36.1514 -94.1381 199° South 419 482 36,000  Level Memphis Center
02:25PM 36.0233 -94.1631 189° South 441 507 36,000  Level Memphis Center
02:26PM 35.8978 -94.1853 188° South 446 513 36,000  Level Memphis Center
02:27PM 35.7719 -94.2078 188° South 452 520 36,000  Level Memphis Center
02:28PM 35.6461 -94.2300 188° South 457 526 36,000  Level Memphis Center
02:29PM 35.5181 -94.2519 188° South 457 526 36,000  Level Memphis Center
02:30PM 35.3942 -94.2819 191° South 462 532 36,000  Level Memphis Center
02:31PM 35.2975 -94.3664 215° Southwest 431 496 36,000  Level Memphis Center
02:32PM 35.2047 -94.4661 221° Southwest 437 503 36,000  Level Memphis Center
02:33PM 35.1311 -94.5464 222° Southwest 442 509 36,000  Level Memphis Center
02:34PM 35.0544 -94.6389 225° Southwest 447 514 36,000  Level Fort Worth Center
02:35PM 34.9811 -94.7147 220° Southwest 441 507 36,000  Level Fort Worth Center
02:36PM 34.8728 -94.8322 222° Southwest 436 502 36,000  Level Fort Worth Center
02:37PM 34.7789 -94.9361 222° Southwest 442 509 36,000 -60 Level Fort Worth Center
02:38PM 34.6761 -95.0097 211° Southwest 434 499 35,900 -780 Descending Fort Worth Center
02:39PM 34.5447 -95.0033 178° South 434 499 34,500 -1,500 Descending Fort Worth Center
02:40PM 34.4106 -94.9769 171° South 447 514 33,000 -1,500 Descending Fort Worth Center
02:41PM 34.2828 -94.9503 170° South 458 527 31,500 -1,500 Descending Fort Worth Center
02:42PM 34.1611 -94.9236 170° South 463 533 30,000 -1,500 Descending Fort Worth Center
02:43PM 34.0461 -94.9044 172° South 447 514 28,500 -1,440 Descending Fort Worth Center
02:44PM 33.9356 -94.9075 181° South 400 460 27,200 -1,200 Descending Fort Worth Center
02:45PM 33.8747 -95.0019 232° Southwest 338 389 26,200 -1,020 Descending Fort Worth Center
02:46PM 33.8436 -95.1178 252° West 326 375 25,200 -960 Descending Fort Worth Center
02:47PM 33.8103 -95.2461 253° West 360 414 24,300 -600 Descending Fort Worth Center
02:48PM 33.7708 -95.3844 251° West 407 468 24,000 -180 Descending Fort Worth Center
02:49PM 33.7314 -95.5203 251° West 426 490 24,000  Level Fort Worth Center
02:50PM 33.6978 -95.6558 253° West 431 496 24,000  Level Fort Worth Center
02:51PM 33.6600 -95.7939 252° West 431 496 24,000  Level Fort Worth Center
02:52PM 33.6261 -95.9217 252° West 425 489 24,000 -840 Level Fort Worth Center
02:53PM 33.5919 -96.0419 251° West 425 489 22,400 -1,860 Descending Fort Worth Center
02:54PM 33.5517 -96.1847 251° West 418 481 20,300 -1,920 Descending Fort Worth Center
02:55PM 33.5025 -96.2800 238° Southwest 392 451 18,600 -1,920 Descending Fort Worth Center
02:56PM 33.4197 -96.3756 224° Southwest 380 437 16,500 -2,100 Descending Fort Worth Center
02:57PM 33.3536 -96.4561 226° Southwest 375 432 14,400 -2,160 Descending Fort Worth Center
02:58PM 33.2792 -96.5464 225° Southwest 361 415 12,200 -1,740 Descending Fort Worth Center
02:59PM 33.2128 -96.6239 224° Southwest 353 406 11,000 -420 Descending Fort Worth Center
03:01PM 33.0906 -96.7689 225° Southwest 308 354 11,000  Level Fort Worth Center
03:01PM 33.0667 -96.8000 228° Southwest 313 360 11,000  Level Dallas / Fort Worth TRACON
03:02PM 33.0000 -96.8667 220° Southwest 290 334 11,000  Level Dallas / Fort Worth TRACON
03:03PM 32.9500 -96.9000 209° Southwest 285 328 11,000 -840 Level Dallas / Fort Worth TRACON
03:04PM 32.8667 -96.9000 180° South 280 322 9,400 -1,920 Descending Dallas / Fort Worth TRACON
03:05PM 32.7833 -96.9000 180° South 263 303 7,300 -1,980 Descending Dallas / Fort Worth TRACON
03:06PM 32.7167 -96.9167 192° South 240 276 5,300 -1,980 Descending Dallas / Fort Worth TRACON